sensor_id;sensor_type;location;lat;lon;timestamp;pressure;altitude;pressure_sealevel;temperature;humidity
52947;BME280;45776;40.400;17.260;2022-07-18T00:02:01;101415.09;;;28.16;85.26
52947;BME280;45776;40.400;17.260;2022-07-18T00:04:27;101422.47;;;28.05;86.21
52947;BME280;45776;40.400;17.260;2022-07-18T00:06:54;101407.25;;;28.10;86.26
52947;BME280;45776;40.400;17.260;2022-07-18T00:09:19;101414.69;;;27.97;87.16
52947;BME280;45776;40.400;17.260;2022-07-18T00:11:48;101412.25;;;27.89;88.21
52947;BME280;45776;40.400;17.260;2022-07-18T00:14:13;101408.81;;;27.85;88.56
52947;BME280;45776;40.400;17.260;2022-07-18T00:16:39;101407.97;;;27.83;89.23
52947;BME280;45776;40.400;17.260;2022-07-18T00:19:05;101408.69;;;27.90;89.62
52947;BME280;45776;40.400;17.260;2022-07-18T00:21:31;101399.94;;;27.85;90.05
52947;BME280;45776;40.400;17.260;2022-07-18T00:23:57;101397.38;;;27.82;90.23
52947;BME280;45776;40.400;17.260;2022-07-18T00:26:22;101391.28;;;27.78;90.43
52947;BME280;45776;40.400;17.260;2022-07-18T00:28:48;101400.97;;;27.81;90.31
52947;BME280;45776;40.400;17.260;2022-07-18T00:31:13;101393.09;;;27.76;90.35
52947;BME280;45776;40.400;17.260;2022-07-18T00:33:39;101392.97;;;27.81;90.16
52947;BME280;45776;40.400;17.260;2022-07-18T00:36:04;101401.56;;;27.91;89.79
52947;BME280;45776;40.400;17.260;2022-07-18T00:38:30;101402.47;;;27.91;89.65
52947;BME280;45776;40.400;17.260;2022-07-18T00:40:56;101401.44;;;27.95;89.53
52947;BME280;45776;40.400;17.260;2022-07-18T00:43:21;101405.91;;;27.95;89.19
52947;BME280;45776;40.400;17.260;2022-07-18T00:45:48;101407.66;;;27.94;89.55
52947;BME280;45776;40.400;17.260;2022-07-18T00:48:15;101406.09;;;27.87;89.90
52947;BME280;45776;40.400;17.260;2022-07-18T00:50:42;101407.41;;;28.03;88.86
52947;BME280;45776;40.400;17.260;2022-07-18T00:53:08;101404.94;;;27.97;89.03
52947;BME280;45776;40.400;17.260;2022-07-18T00:55:38;101407.91;;;27.86;89.48
52947;BME280;45776;40.400;17.260;2022-07-18T00:58:03;101398.03;;;27.90;88.74
52947;BME280;45776;40.400;17.260;2022-07-18T01:00:29;101406.06;;;27.89;88.83
52947;BME280;45776;40.400;17.260;2022-07-18T01:03:13;101404.34;;;27.88;88.82
52947;BME280;45776;40.400;17.260;2022-07-18T01:05:39;101402.47;;;27.90;88.46
52947;BME280;45776;40.400;17.260;2022-07-18T01:08:04;101399.03;;;27.86;88.47
52947;BME280;45776;40.400;17.260;2022-07-18T01:10:29;101404.34;;;27.86;88.55
52947;BME280;45776;40.400;17.260;2022-07-18T01:12:56;101406.88;;;27.92;88.16
52947;BME280;45776;40.400;17.260;2022-07-18T01:15:21;101405.66;;;28.04;87.23
52947;BME280;45776;40.400;17.260;2022-07-18T01:17:47;101401.13;;;28.08;87.16
52947;BME280;45776;40.400;17.260;2022-07-18T01:20:14;101399.38;;;28.07;87.71
52947;BME280;45776;40.400;17.260;2022-07-18T01:22:40;101395.06;;;28.01;89.12
52947;BME280;45776;40.400;17.260;2022-07-18T01:25:11;101406.59;;;28.01;90.38
52947;BME280;45776;40.400;17.260;2022-07-18T01:27:37;101406.50;;;28.05;90.58
52947;BME280;45776;40.400;17.260;2022-07-18T01:30:04;101402.66;;;27.83;98.72
52947;BME280;45776;40.400;17.260;2022-07-18T01:32:30;101410.47;;;27.90;100.00
52947;BME280;45776;40.400;17.260;2022-07-18T01:34:55;101408.06;;;27.80;100.00
52947;BME280;45776;40.400;17.260;2022-07-18T01:37:21;101411.25;;;27.60;100.00
52947;BME280;45776;40.400;17.260;2022-07-18T01:39:46;101408.53;;;27.63;100.00
52947;BME280;45776;40.400;17.260;2022-07-18T01:42:12;101411.25;;;27.62;100.00
52947;BME280;45776;40.400;17.260;2022-07-18T01:44:38;101417.19;;;27.71;100.00
52947;BME280;45776;40.400;17.260;2022-07-18T01:47:06;101414.56;;;27.70;100.00
52947;BME280;45776;40.400;17.260;2022-07-18T01:49:33;101403.75;;;27.76;100.00
52947;BME280;45776;40.400;17.260;2022-07-18T01:51:59;101397.75;;;27.68;100.00
52947;BME280;45776;40.400;17.260;2022-07-18T01:54:29;101402.22;;;27.67;100.00
52947;BME280;45776;40.400;17.260;2022-07-18T01:56:55;101408.28;;;27.73;100.00
52947;BME280;45776;40.400;17.260;2022-07-18T01:59:21;101408.28;;;27.73;100.00
52947;BME280;45776;40.400;17.260;2022-07-18T02:01:47;101406.78;;;27.62;100.00
52947;BME280;45776;40.400;17.260;2022-07-18T02:04:13;101409.53;;;27.59;100.00
52947;BME280;45776;40.400;17.260;2022-07-18T02:06:38;101406.47;;;27.40;100.00
52947;BME280;45776;40.400;17.260;2022-07-18T02:09:06;101406.34;;;27.45;100.00
52947;BME280;45776;40.400;17.260;2022-07-18T02:11:32;101409.47;;;27.24;100.00
52947;BME280;45776;40.400;17.260;2022-07-18T02:13:58;101395.94;;;27.35;100.00
52947;BME280;45776;40.400;17.260;2022-07-18T02:16:24;101405.63;;;27.38;100.00
52947;BME280;45776;40.400;17.260;2022-07-18T02:18:49;101407.59;;;27.30;100.00
52947;BME280;45776;40.400;17.260;2022-07-18T02:21:15;101402.44;;;27.23;100.00
52947;BME280;45776;40.400;17.260;2022-07-18T02:23:41;101408.69;;;27.21;100.00
52947;BME280;45776;40.400;17.260;2022-07-18T02:26:07;101401.78;;;27.14;100.00
52947;BME280;45776;40.400;17.260;2022-07-18T02:28:33;101401.66;;;27.20;100.00
52947;BME280;45776;40.400;17.260;2022-07-18T02:30:59;101399.97;;;27.16;100.00
52947;BME280;45776;40.400;17.260;2022-07-18T02:33:24;101397.31;;;27.16;100.00
52947;BME280;45776;40.400;17.260;2022-07-18T02:35:50;101400.97;;;27.10;100.00
52947;BME280;45776;40.400;17.260;2022-07-18T02:38:16;101406.41;;;27.07;100.00
52947;BME280;45776;40.400;17.260;2022-07-18T02:40:41;101401.31;;;26.96;100.00
52947;BME280;45776;40.400;17.260;2022-07-18T02:43:07;101407.56;;;26.95;100.00
52947;BME280;45776;40.400;17.260;2022-07-18T02:45:33;101401.34;;;26.95;100.00
52947;BME280;45776;40.400;17.260;2022-07-18T02:47:58;101404.06;;;26.93;100.00
52947;BME280;45776;40.400;17.260;2022-07-18T02:50:24;101406.78;;;26.90;100.00
52947;BME280;45776;40.400;17.260;2022-07-18T02:52:49;101410.44;;;26.84;100.00
52947;BME280;45776;40.400;17.260;2022-07-18T02:55:15;101418.53;;;26.81;100.00
52947;BME280;45776;40.400;17.260;2022-07-18T02:57:41;101421.22;;;26.80;100.00
52947;BME280;45776;40.400;17.260;2022-07-18T03:00:09;101423.88;;;26.80;100.00
52947;BME280;45776;40.400;17.260;2022-07-18T03:02:36;101421.22;;;26.78;100.00
52947;BME280;45776;40.400;17.260;2022-07-18T03:05:02;101420.97;;;26.90;100.00
52947;BME280;45776;40.400;17.260;2022-07-18T03:07:28;101425.69;;;26.77;100.00
52947;BME280;45776;40.400;17.260;2022-07-18T03:09:54;101415.13;;;26.73;100.00
52947;BME280;45776;40.400;17.260;2022-07-18T03:12:19;101420.19;;;26.85;100.00
52947;BME280;45776;40.400;17.260;2022-07-18T03:14:45;101419.38;;;26.83;100.00
52947;BME280;45776;40.400;17.260;2022-07-18T03:17:10;101421.31;;;26.73;100.00
52947;BME280;45776;40.400;17.260;2022-07-18T03:19:36;101425.72;;;26.74;100.00
52947;BME280;45776;40.400;17.260;2022-07-18T03:22:03;101424.06;;;26.70;100.00
52947;BME280;45776;40.400;17.260;2022-07-18T03:24:29;101423.25;;;26.65;100.00
52947;BME280;45776;40.400;17.260;2022-07-18T03:26:54;101427.75;;;26.63;100.00
52947;BME280;45776;40.400;17.260;2022-07-18T03:29:20;101430.41;;;26.63;100.00
52947;BME280;45776;40.400;17.260;2022-07-18T03:31:45;101426.94;;;26.59;100.00
52947;BME280;45776;40.400;17.260;2022-07-18T03:34:11;101426.16;;;26.56;100.00
52947;BME280;45776;40.400;17.260;2022-07-18T03:36:37;101423.69;;;26.47;100.00
52947;BME280;45776;40.400;17.260;2022-07-18T03:39:03;101427.28;;;26.44;100.00
52947;BME280;45776;40.400;17.260;2022-07-18T03:41:29;101423.53;;;26.53;100.00
52947;BME280;45776;40.400;17.260;2022-07-18T03:43:54;101422.75;;;26.49;100.00
52947;BME280;45776;40.400;17.260;2022-07-18T03:46:20;101428.97;;;26.48;100.00
52947;BME280;45776;40.400;17.260;2022-07-18T03:48:45;101434.06;;;26.57;100.00
52947;BME280;45776;40.400;17.260;2022-07-18T03:51:11;101433.19;;;26.57;100.00
52947;BME280;45776;40.400;17.260;2022-07-18T03:53:36;101438.63;;;26.51;100.00
52947;BME280;45776;40.400;17.260;2022-07-18T03:56:02;101425.50;;;26.44;100.00
52947;BME280;45776;40.400;17.260;2022-07-18T03:58:27;101432.38;;;26.55;100.00
52947;BME280;45776;40.400;17.260;2022-07-18T04:00:53;101437.63;;;26.56;100.00
52947;BME280;45776;40.400;17.260;2022-07-18T04:03:19;101438.69;;;26.49;100.00
52947;BME280;45776;40.400;17.260;2022-07-18T04:05:45;101443.94;;;26.51;100.00
52947;BME280;45776;40.400;17.260;2022-07-18T04:08:11;101445.75;;;26.50;100.00
52947;BME280;45776;40.400;17.260;2022-07-18T04:10:36;101446.69;;;26.46;100.00
52947;BME280;45776;40.400;17.260;2022-07-18T04:13:05;101448.50;;;26.45;100.00
52947;BME280;45776;40.400;17.260;2022-07-18T04:15:32;101446.75;;;26.44;100.00
52947;BME280;45776;40.400;17.260;2022-07-18T04:17:58;101448.53;;;26.44;100.00
52947;BME280;45776;40.400;17.260;2022-07-18T04:20:23;101448.63;;;26.39;100.00
52947;BME280;45776;40.400;17.260;2022-07-18T04:22:59;101454.63;;;26.49;100.00
52947;BME280;45776;40.400;17.260;2022-07-18T04:25:28;101452.19;;;26.38;100.00
52947;BME280;45776;40.400;17.260;2022-07-18T04:27:54;101454.09;;;26.32;100.00
52947;BME280;45776;40.400;17.260;2022-07-18T04:30:22;101456.59;;;26.39;100.00
52947;BME280;45776;40.400;17.260;2022-07-18T04:32:49;101464.84;;;26.25;100.00
52947;BME280;45776;40.400;17.260;2022-07-18T04:35:14;101462.16;;;26.27;100.00
52947;BME280;45776;40.400;17.260;2022-07-18T04:37:40;101454.13;;;26.28;100.00
52947;BME280;45776;40.400;17.260;2022-07-18T04:40:08;101462.81;;;26.37;100.00
52947;BME280;45776;40.400;17.260;2022-07-18T04:42:34;101459.22;;;26.41;100.00
52947;BME280;45776;40.400;17.260;2022-07-18T04:45:00;101461.88;;;26.41;100.00
52947;BME280;45776;40.400;17.260;2022-07-18T04:47:28;101459.03;;;26.49;100.00
52947;BME280;45776;40.400;17.260;2022-07-18T04:49:54;101460.69;;;26.56;100.00
52947;BME280;45776;40.400;17.260;2022-07-18T04:52:20;101462.38;;;26.58;100.00
52947;BME280;45776;40.400;17.260;2022-07-18T04:54:46;101459.63;;;26.63;100.00
52947;BME280;45776;40.400;17.260;2022-07-18T04:57:11;101464.94;;;26.63;100.00
52947;BME280;45776;40.400;17.260;2022-07-18T04:59:42;101455.81;;;26.76;100.00
52947;BME280;45776;40.400;17.260;2022-07-18T05:02:09;101459.31;;;26.79;100.00
52947;BME280;45776;40.400;17.260;2022-07-18T05:04:35;101453.19;;;26.75;100.00
52947;BME280;45776;40.400;17.260;2022-07-18T05:07:01;101457.47;;;26.81;100.00
52947;BME280;45776;40.400;17.260;2022-07-18T05:09:27;101454.47;;;26.98;100.00
52947;BME280;45776;40.400;17.260;2022-07-18T05:11:52;101450.91;;;26.99;100.00
52947;BME280;45776;40.400;17.260;2022-07-18T05:14:17;101446.38;;;27.02;100.00
52947;BME280;45776;40.400;17.260;2022-07-18T05:16:43;101438.16;;;27.13;100.00
52947;BME280;45776;40.400;17.260;2022-07-18T05:19:09;101445.91;;;27.21;100.00
52947;BME280;45776;40.400;17.260;2022-07-18T05:21:35;101444.22;;;27.18;100.00
52947;BME280;45776;40.400;17.260;2022-07-18T05:24:00;101438.88;;;27.20;100.00
52947;BME280;45776;40.400;17.260;2022-07-18T05:26:26;101448.47;;;27.26;100.00
52947;BME280;45776;40.400;17.260;2022-07-18T05:28:52;101447.59;;;27.25;100.00
52947;BME280;45776;40.400;17.260;2022-07-18T05:31:17;101447.44;;;27.31;100.00
52947;BME280;45776;40.400;17.260;2022-07-18T05:33:42;101437.66;;;27.33;100.00
52947;BME280;45776;40.400;17.260;2022-07-18T05:36:09;101445.38;;;27.44;100.00
52947;BME280;45776;40.400;17.260;2022-07-18T05:38:34;101446.22;;;27.46;100.00
52947;BME280;45776;40.400;17.260;2022-07-18T05:41:00;101445.28;;;27.49;100.00
52947;BME280;45776;40.400;17.260;2022-07-18T05:43:26;101449.56;;;27.54;100.00
52947;BME280;45776;40.400;17.260;2022-07-18T05:45:51;101438.00;;;27.55;100.00
52947;BME280;45776;40.400;17.260;2022-07-18T05:48:17;101442.94;;;27.69;100.00
52947;BME280;45776;40.400;17.260;2022-07-18T05:50:42;101450.97;;;27.68;100.00
52947;BME280;45776;40.400;17.260;2022-07-18T05:53:08;101450.91;;;27.71;100.00
52947;BME280;45776;40.400;17.260;2022-07-18T05:55:33;101453.44;;;27.76;100.00
52947;BME280;45776;40.400;17.260;2022-07-18T05:57:59;101455.88;;;27.83;100.00
52947;BME280;45776;40.400;17.260;2022-07-18T06:00:24;101459.94;;;27.98;100.00
52947;BME280;45776;40.400;17.260;2022-07-18T06:02:50;101463.56;;;27.94;100.00
52947;BME280;45776;40.400;17.260;2022-07-18T06:05:16;101459.88;;;28.00;100.00
52947;BME280;45776;40.400;17.260;2022-07-18T06:07:42;101465.78;;;28.13;100.00
52947;BME280;45776;40.400;17.260;2022-07-18T06:10:08;101469.22;;;28.16;100.00
52947;BME280;45776;40.400;17.260;2022-07-18T06:12:33;101466.34;;;28.24;100.00
52947;BME280;45776;40.400;17.260;2022-07-18T06:14:59;101467.91;;;28.31;100.00
52947;BME280;45776;40.400;17.260;2022-07-18T06:17:26;101463.88;;;28.48;100.00
52947;BME280;45776;40.400;17.260;2022-07-18T06:19:53;101455.13;;;28.43;100.00
52947;BME280;45776;40.400;17.260;2022-07-18T06:22:19;101459.59;;;28.42;100.00
52947;BME280;45776;40.400;17.260;2022-07-18T06:24:45;101469.81;;;28.58;100.00
52947;BME280;45776;40.400;17.260;2022-07-18T06:27:10;101466.91;;;28.65;100.00
52947;BME280;45776;40.400;17.260;2022-07-18T06:29:36;101464.09;;;28.72;100.00
52947;BME280;45776;40.400;17.260;2022-07-18T06:32:01;101462.34;;;28.69;100.00
52947;BME280;45776;40.400;17.260;2022-07-18T06:34:27;101465.06;;;28.68;100.00
52947;BME280;45776;40.400;17.260;2022-07-18T06:36:52;101459.78;;;28.66;100.00
52947;BME280;45776;40.400;17.260;2022-07-18T06:39:18;101447.94;;;28.76;100.00
52947;BME280;45776;40.400;17.260;2022-07-18T06:41:44;101456.69;;;28.82;100.00
52947;BME280;45776;40.400;17.260;2022-07-18T06:44:10;101453.47;;;28.70;100.00
52947;BME280;45776;40.400;17.260;2022-07-18T06:46:36;101453.13;;;28.81;100.00
52947;BME280;45776;40.400;17.260;2022-07-18T06:49:02;101452.63;;;28.98;100.00
52947;BME280;45776;40.400;17.260;2022-07-18T06:51:28;101452.47;;;29.03;100.00
52947;BME280;45776;40.400;17.260;2022-07-18T06:53:54;101444.06;;;29.15;99.97
52947;BME280;45776;40.400;17.260;2022-07-18T06:56:20;101441.28;;;29.18;100.00
52947;BME280;45776;40.400;17.260;2022-07-18T06:58:45;101445.09;;;29.11;98.85
52947;BME280;45776;40.400;17.260;2022-07-18T07:01:15;101431.91;;;29.06;98.50
52947;BME280;45776;40.400;17.260;2022-07-18T07:03:41;101442.00;;;29.23;99.37
52947;BME280;45776;40.400;17.260;2022-07-18T07:06:06;101439.81;;;29.36;97.89
52947;BME280;45776;40.400;17.260;2022-07-18T07:08:32;101440.03;;;29.28;96.00
52947;BME280;45776;40.400;17.260;2022-07-18T07:10:57;101441.78;;;29.30;96.63
52947;BME280;45776;40.400;17.260;2022-07-18T07:13:23;101433.50;;;29.39;96.64
52947;BME280;45776;40.400;17.260;2022-07-18T07:15:48;101441.13;;;29.51;95.91
52947;BME280;45776;40.400;17.260;2022-07-18T07:18:14;101436.09;;;29.67;91.71
52947;BME280;45776;40.400;17.260;2022-07-18T07:20:39;101442.97;;;29.74;90.43
52947;BME280;45776;40.400;17.260;2022-07-18T07:23:05;101438.34;;;29.80;90.09
52947;BME280;45776;40.400;17.260;2022-07-18T07:25:33;101451.28;;;29.65;91.24
52947;BME280;45776;40.400;17.260;2022-07-18T07:28:01;101448.19;;;29.78;91.57
52947;BME280;45776;40.400;17.260;2022-07-18T07:30:27;101451.69;;;29.80;91.42
52947;BME280;45776;40.400;17.260;2022-07-18T07:32:53;101451.56;;;29.83;92.19
52947;BME280;45776;40.400;17.260;2022-07-18T07:35:20;101462.63;;;29.72;92.00
52947;BME280;45776;40.400;17.260;2022-07-18T07:37:53;101459.50;;;29.59;92.21
52947;BME280;45776;40.400;17.260;2022-07-18T07:40:20;101459.69;;;29.80;89.98
52947;BME280;45776;40.400;17.260;2022-07-18T07:42:46;101456.75;;;29.87;90.43
52947;BME280;45776;40.400;17.260;2022-07-18T07:45:12;101456.63;;;29.92;92.04
52947;BME280;45776;40.400;17.260;2022-07-18T07:47:38;101453.47;;;30.30;90.97
52947;BME280;45776;40.400;17.260;2022-07-18T07:50:07;101457.09;;;30.52;89.35
52947;BME280;45776;40.400;17.260;2022-07-18T07:52:33;101470.53;;;30.49;89.24
52947;BME280;45776;40.400;17.260;2022-07-18T07:54:59;101450.03;;;30.26;90.35
52947;BME280;45776;40.400;17.260;2022-07-18T07:57:24;101459.63;;;30.32;89.42
52947;BME280;45776;40.400;17.260;2022-07-18T07:59:51;101457.22;;;30.24;90.31
52947;BME280;45776;40.400;17.260;2022-07-18T08:02:17;101442.84;;;30.28;89.81
52947;BME280;45776;40.400;17.260;2022-07-18T08:04:43;101448.13;;;30.30;89.51
52947;BME280;45776;40.400;17.260;2022-07-18T08:07:09;101447.06;;;30.58;89.11
52947;BME280;45776;40.400;17.260;2022-07-18T08:09:34;101458.59;;;30.60;89.60
52947;BME280;45776;40.400;17.260;2022-07-18T08:12:00;101464.06;;;30.57;89.14
52947;BME280;45776;40.400;17.260;2022-07-18T08:14:25;101459.38;;;30.38;90.31
52947;BME280;45776;40.400;17.260;2022-07-18T08:16:51;101452.69;;;30.50;89.75
52947;BME280;45776;40.400;17.260;2022-07-18T08:19:16;101460.72;;;30.74;87.61
52947;BME280;45776;40.400;17.260;2022-07-18T08:21:42;101459.72;;;30.76;87.11
52947;BME280;45776;40.400;17.260;2022-07-18T08:24:07;101469.09;;;30.64;88.88
52947;BME280;45776;40.400;17.260;2022-07-18T08:26:33;101460.06;;;30.43;88.98
52947;BME280;45776;40.400;17.260;2022-07-18T08:29:01;101466.31;;;30.67;88.87
52947;BME280;45776;40.400;17.260;2022-07-18T08:31:27;101464.56;;;30.66;88.52
52947;BME280;45776;40.400;17.260;2022-07-18T08:33:54;101464.13;;;30.77;88.33
52947;BME280;45776;40.400;17.260;2022-07-18T08:36:19;101462.03;;;30.86;88.79
52947;BME280;45776;40.400;17.260;2022-07-18T08:38:45;101463.06;;;30.81;88.43
52947;BME280;45776;40.400;17.260;2022-07-18T08:41:11;101459.72;;;30.76;89.31
52947;BME280;45776;40.400;17.260;2022-07-18T08:43:37;101452.53;;;31.00;88.80
52947;BME280;45776;40.400;17.260;2022-07-18T08:46:05;101469.72;;;30.93;88.56
52947;BME280;45776;40.400;17.260;2022-07-18T08:48:32;101460.59;;;30.99;88.27
52947;BME280;45776;40.400;17.260;2022-07-18T08:50:59;101459.72;;;30.76;89.86
52947;BME280;45776;40.400;17.260;2022-07-18T08:53:25;101461.72;;;30.93;90.94
52947;BME280;45776;40.400;17.260;2022-07-18T08:55:51;101458.81;;;31.22;90.62
52947;BME280;45776;40.400;17.260;2022-07-18T08:58:17;101466.72;;;31.25;89.72
52947;BME280;45776;40.400;17.260;2022-07-18T09:00:44;101462.38;;;31.22;88.50
52947;BME280;45776;40.400;17.260;2022-07-18T09:03:10;101463.94;;;31.28;88.99
52947;BME280;45776;40.400;17.260;2022-07-18T09:05:36;101464.53;;;30.90;90.26
52947;BME280;45776;40.400;17.260;2022-07-18T09:08:13;101461.09;;;31.31;89.79
52947;BME280;45776;40.400;17.260;2022-07-18T09:10:51;101457.09;;;31.62;89.33
52947;BME280;45776;40.400;17.260;2022-07-18T09:13:18;101463.19;;;31.67;89.29
52947;BME280;45776;40.400;17.260;2022-07-18T09:16:07;101465.28;;;31.59;89.14
52947;BME280;45776;40.400;17.260;2022-07-18T09:18:38;101469.00;;;31.34;91.42
52947;BME280;45776;40.400;17.260;2022-07-18T09:21:18;101466.59;;;31.28;92.51
52947;BME280;45776;40.400;17.260;2022-07-18T09:23:48;101456.25;;;31.61;91.61
52947;BME280;45776;40.400;17.260;2022-07-18T09:26:40;101458.13;;;32.01;88.92
52947;BME280;45776;40.400;17.260;2022-07-18T09:29:05;101472.69;;;31.74;89.43
52947;BME280;45776;40.400;17.260;2022-07-18T09:31:31;101464.31;;;31.82;89.31
52947;BME280;45776;40.400;17.260;2022-07-18T09:34:02;101472.31;;;31.61;90.60
52947;BME280;45776;40.400;17.260;2022-07-18T09:36:28;101466.13;;;31.82;90.37
52947;BME280;45776;40.400;17.260;2022-07-18T09:38:59;101467.47;;;31.49;92.75
52947;BME280;45776;40.400;17.260;2022-07-18T09:41:26;101462.22;;;31.89;91.40
52947;BME280;45776;40.400;17.260;2022-07-18T09:43:52;101463.91;;;31.91;90.86
52947;BME280;45776;40.400;17.260;2022-07-18T09:46:18;101463.88;;;32.12;89.39
52947;BME280;45776;40.400;17.260;2022-07-18T09:48:44;101470.31;;;32.08;88.13
52947;BME280;45776;40.400;17.260;2022-07-18T09:51:09;101460.16;;;32.35;87.19
52947;BME280;45776;40.400;17.260;2022-07-18T09:53:42;101469.22;;;32.52;86.87
52947;BME280;45776;40.400;17.260;2022-07-18T09:56:12;101462.28;;;32.29;87.43
52947;BME280;45776;40.400;17.260;2022-07-18T09:58:43;101455.53;;;32.58;85.91
52947;BME280;45776;40.400;17.260;2022-07-18T10:01:15;101460.09;;;32.37;86.40
52947;BME280;45776;40.400;17.260;2022-07-18T10:03:40;101460.84;;;32.40;86.15
52947;BME280;45776;40.400;17.260;2022-07-18T10:06:06;101463.13;;;32.29;86.16
52947;BME280;45776;40.400;17.260;2022-07-18T10:08:33;101450.88;;;32.43;84.82
52947;BME280;45776;40.400;17.260;2022-07-18T10:11:01;101457.91;;;32.26;84.87
52947;BME280;45776;40.400;17.260;2022-07-18T10:13:29;101458.66;;;32.49;82.50
52947;BME280;45776;40.400;17.260;2022-07-18T10:15:56;101450.00;;;32.99;80.79
52947;BME280;45776;40.400;17.260;2022-07-18T10:18:24;101444.84;;;33.49;78.28
52947;BME280;45776;40.400;17.260;2022-07-18T10:23:31;101452.44;;;33.41;76.80
52947;BME280;45776;40.400;17.260;2022-07-18T10:31:32;101442.16;;;33.66;74.73
52947;BME280;45776;40.400;17.260;2022-07-18T10:36:30;101437.06;;;33.78;71.95
52947;BME280;45776;40.400;17.260;2022-07-18T11:03:09;101413.41;;;34.68;70.71
52947;BME280;45776;40.400;17.260;2022-07-18T11:21:22;101397.00;;;34.88;73.38
52947;BME280;45776;40.400;17.260;2022-07-18T11:23:53;101402.25;;;35.06;74.25
52947;BME280;45776;40.400;17.260;2022-07-18T11:26:22;101401.38;;;35.36;72.34
52947;BME280;45776;40.400;17.260;2022-07-18T11:28:48;101403.19;;;35.66;71.35
52947;BME280;45776;40.400;17.260;2022-07-18T11:31:16;101392.97;;;35.26;73.02
52947;BME280;45776;40.400;17.260;2022-07-18T11:33:45;101392.91;;;35.87;72.06
52947;BME280;45776;40.400;17.260;2022-07-18T11:36:14;101380.47;;;35.70;71.16
52947;BME280;45776;40.400;17.260;2022-07-18T11:38:56;101393.16;;;36.26;69.12
52947;BME280;45776;40.400;17.260;2022-07-18T11:41:23;101389.03;;;35.62;70.00
52947;BME280;45776;40.400;17.260;2022-07-18T11:43:51;101388.53;;;34.48;74.77
52947;BME280;45776;40.400;17.260;2022-07-18T11:46:19;101386.28;;;34.87;75.32
52947;BME280;45776;40.400;17.260;2022-07-18T11:48:57;101390.44;;;34.46;75.44
52947;BME280;45776;40.400;17.260;2022-07-18T11:51:23;101387.28;;;35.16;73.24
52947;BME280;45776;40.400;17.260;2022-07-18T11:53:51;101384.72;;;36.03;70.47
52947;BME280;45776;40.400;17.260;2022-07-18T11:56:20;101370.25;;;36.33;67.14
52947;BME280;45776;40.400;17.260;2022-07-18T11:58:47;101372.78;;;36.07;67.47
52947;BME280;45776;40.400;17.260;2022-07-18T12:01:15;101372.88;;;35.91;68.16
52947;BME280;45776;40.400;17.260;2022-07-18T12:03:48;101372.53;;;35.97;68.37
52947;BME280;45776;40.400;17.260;2022-07-18T12:06:18;101366.25;;;37.21;65.07
52947;BME280;45776;40.400;17.260;2022-07-18T12:08:48;101370.22;;;37.80;62.21
52947;BME280;45776;40.400;17.260;2022-07-18T12:11:28;101367.22;;;37.59;61.32
52947;BME280;45776;40.400;17.260;2022-07-18T12:16:42;101358.06;;;37.61;58.81
52947;BME280;45776;40.400;17.260;2022-07-18T12:19:09;101361.06;;;37.69;57.96
52947;BME280;45776;40.400;17.260;2022-07-18T12:21:50;101366.63;;;36.89;59.47
52947;BME280;45776;40.400;17.260;2022-07-18T12:32:23;101357.66;;;35.76;57.85
52947;BME280;45776;40.400;17.260;2022-07-18T12:37:34;101353.78;;;36.92;54.56
52947;BME280;45776;40.400;17.260;2022-07-18T12:40:08;101350.03;;;36.40;53.79
52947;BME280;45776;40.400;17.260;2022-07-18T12:42:40;101343.44;;;36.85;52.14
52947;BME280;45776;40.400;17.260;2022-07-18T12:45:08;101347.38;;;36.53;50.96
52947;BME280;45776;40.400;17.260;2022-07-18T12:47:34;101337.69;;;37.17;50.74
52947;BME280;45776;40.400;17.260;2022-07-18T12:49:59;101340.63;;;36.86;48.20
52947;BME280;45776;40.400;17.260;2022-07-18T12:52:25;101335.94;;;36.50;47.83
52947;BME280;45776;40.400;17.260;2022-07-18T12:54:50;101335.06;;;36.89;46.20
52947;BME280;45776;40.400;17.260;2022-07-18T12:57:17;101328.75;;;37.55;44.94
52947;BME280;45776;40.400;17.260;2022-07-18T12:59:43;101315.75;;;37.86;43.70
52947;BME280;45776;40.400;17.260;2022-07-18T13:02:11;101320.09;;;37.11;44.12
52947;BME280;45776;40.400;17.260;2022-07-18T13:04:38;101318.38;;;37.62;43.30
52947;BME280;45776;40.400;17.260;2022-07-18T13:07:04;101323.47;;;37.53;41.84
52947;BME280;45776;40.400;17.260;2022-07-18T13:09:29;101317.41;;;37.63;40.91
52947;BME280;45776;40.400;17.260;2022-07-18T13:11:55;101312.13;;;37.48;40.29
52947;BME280;45776;40.400;17.260;2022-07-18T13:14:21;101313.09;;;37.60;40.59
52947;BME280;45776;40.400;17.260;2022-07-18T13:16:47;101306.25;;;37.16;40.68
52947;BME280;45776;40.400;17.260;2022-07-18T13:19:15;101310.53;;;37.46;39.68
52947;BME280;45776;40.400;17.260;2022-07-18T13:21:43;101301.84;;;37.15;39.71
52947;BME280;45776;40.400;17.260;2022-07-18T13:24:09;101302.25;;;37.86;39.16
52947;BME280;45776;40.400;17.260;2022-07-18T13:26:34;101298.25;;;38.16;38.87
52947;BME280;45776;40.400;17.260;2022-07-18T13:29:00;101300.38;;;38.24;38.11
52947;BME280;45776;40.400;17.260;2022-07-18T13:31:25;101295.19;;;37.83;38.14
52947;BME280;45776;40.400;17.260;2022-07-18T13:33:51;101296.75;;;38.12;37.99
52947;BME280;45776;40.400;17.260;2022-07-18T13:36:17;101298.28;;;37.66;38.51
52947;BME280;45776;40.400;17.260;2022-07-18T13:38:43;101294.72;;;38.02;37.98